Time;durP1;ratioP1;P1;durP2;ratioP2;P2;SDS_P1;SDS_P2;PMS_P1;PMS_P2;Temp;Humidity;BMP_temperature;BMP_pressure;BME280_temperature;BME280_humidity;BME280_pressure;Samples;Min_cycle;Max_cycle;Signal;HPM_P1;HPM_P2
2022/04/13 00:01:16;;;;;;;;;;;;;;;9.14;47.54;100047.09;5186913;27;35012;-92
2022/04/13 00:03:46;;;;;;;;;;;;;;;9.07;47.05;100054.00;5187214;27;34501;-94
2022/04/13 00:06:15;;;;;;;;;;;;;;;9.01;47.10;100059.16;5186927;27;33287;-92
2022/04/13 00:08:44;;;;;;;;;;;;;;;9.10;47.18;100053.13;5191644;27;34907;-95
2022/04/13 00:27:06;;;;;;;;;;;;;;;8.94;47.59;100070.41;5219011;27;20030;-91
2022/04/13 00:29:37;;;;;;;;;;;;;;;8.88;47.10;100066.09;5229420;27;33308;-92
2022/04/13 00:32:14;;;;;;;;;;;;;;;8.90;47.69;100061.78;5228875;27;34899;-93
2022/04/13 00:34:44;;;;;;;;;;;;;;;8.80;48.08;100064.37;5208485;27;34093;-91
2022/04/13 00:37:18;;;;;;;;;;;;;;;8.92;47.67;100064.37;5228658;27;33899;-91
2022/04/13 00:39:57;;;;;;;;;;;;;;;8.86;47.97;100060.03;5209347;27;32512;-93
2022/04/13 00:42:43;;;;;;;;;;;;;;;8.80;48.31;100065.22;5214732;27;34088;-95
2022/04/13 00:45:16;;;;;;;;;;;;;;;8.86;47.90;100067.81;5234350;27;33892;-93
2022/04/13 00:47:51;;;;;;;;;;;;;;;8.91;47.50;100063.50;5228512;27;34849;-92
2022/04/13 00:50:24;;;;;;;;;;;;;;;8.72;47.47;100064.34;5229665;27;33611;-94
2022/04/13 00:52:56;;;;;;;;;;;;;;;8.84;47.26;100069.53;5228916;27;33664;-92
2022/04/13 00:55:27;;;;;;;;;;;;;;;8.78;47.58;100072.13;5228713;27;34999;-92
2022/04/13 00:58:05;;;;;;;;;;;;;;;8.79;47.44;100070.41;5233981;27;34670;-92
2022/04/13 01:00:48;;;;;;;;;;;;;;;8.62;47.84;100060.03;5234258;27;33319;-91
2022/04/13 01:03:17;;;;;;;;;;;;;;;8.74;47.39;100070.41;5229108;27;33220;-94
2022/04/13 01:05:49;;;;;;;;;;;;;;;8.71;47.77;100067.81;5209870;27;33007;-95
2022/04/13 01:08:18;;;;;;;;;;;;;;;8.79;46.61;100071.25;5209806;27;32928;-92
2022/04/13 01:10:56;;;;;;;;;;;;;;;8.64;47.48;100071.25;5229462;27;33337;-95
2022/04/13 01:13:28;;;;;;;;;;;;;;;8.64;47.95;100071.25;5229066;27;33370;-91
2022/04/13 01:15:59;;;;;;;;;;;;;;;8.74;47.56;100078.16;5234163;27;34835;-92
2022/04/13 01:18:28;;;;;;;;;;;;;;;8.61;47.74;100079.88;5228927;27;34239;-91
2022/04/13 01:21:10;;;;;;;;;;;;;;;8.67;47.33;100072.09;5229146;27;33616;-93
2022/04/13 01:23:43;;;;;;;;;;;;;;;8.56;48.26;100079.00;5229364;27;34323;-92
2022/04/13 01:26:15;;;;;;;;;;;;;;;8.57;48.40;100085.03;5228514;27;35269;-92
2022/04/13 01:28:52;;;;;;;;;;;;;;;8.69;48.40;100082.47;5228995;27;33851;-94
2022/04/13 01:31:26;;;;;;;;;;;;;;;8.72;48.32;100074.69;5233778;27;33670;-92
2022/04/13 01:34:00;;;;;;;;;;;;;;;8.54;49.25;100080.72;5229470;27;33914;-92
2022/04/13 01:36:38;;;;;;;;;;;;;;;8.64;49.50;100090.22;5228830;27;34013;-92
2022/04/13 01:42:34;;;;;;;;;;;;;;;8.44;49.87;100087.59;5195281;27;35845;-93
2022/04/13 01:45:10;;;;;;;;;;;;;;;8.56;50.11;100091.09;5228778;27;34914;-92
2022/04/13 01:47:48;;;;;;;;;;;;;;;8.53;50.32;100091.94;5229347;27;33943;-91
2022/04/13 01:50:23;;;;;;;;;;;;;;;8.56;50.01;100088.50;5228712;27;34798;-92
2022/04/13 01:53:35;;;;;;;;;;;;;;;8.46;50.24;100093.66;5211208;27;32977;-92
2022/04/13 01:56:23;;;;;;;;;;;;;;;8.56;49.72;100098.84;5233979;27;33917;-95
2022/04/13 01:59:14;;;;;;;;;;;;;;;8.61;49.32;100095.41;5233541;27;34241;-91
2022/04/13 02:01:53;;;;;;;;;;;;;;;8.44;49.69;100097.94;5230796;27;35418;-95
2022/04/13 02:04:36;;;;;;;;;;;;;;;8.39;50.05;100097.06;5229321;27;33437;-93
2022/04/13 02:07:17;;;;;;;;;;;;;;;8.47;49.92;100099.69;5210078;27;34616;-94
2022/04/13 02:09:58;;;;;;;;;;;;;;;8.47;49.20;100107.44;5229970;27;34441;-93
2022/04/13 02:12:32;;;;;;;;;;;;;;;8.41;48.76;100105.72;5228676;27;32769;-95
2022/04/13 02:15:31;;;;;;;;;;;;;;;8.41;48.63;100103.12;5229804;27;33326;-92
2022/04/13 02:18:06;;;;;;;;;;;;;;;8.26;48.89;100096.16;5229635;27;34165;-96
2022/04/13 02:20:37;;;;;;;;;;;;;;;8.40;47.63;100103.97;5234838;27;34454;-91
2022/04/13 02:23:09;;;;;;;;;;;;;;;8.37;48.17;100106.53;5229616;27;34973;-91
2022/04/13 02:25:46;;;;;;;;;;;;;;;8.31;48.25;100109.97;5229631;27;33683;-92
2022/04/13 02:28:21;;;;;;;;;;;;;;;8.32;48.11;100103.91;5229189;27;34904;-92
2022/04/13 02:31:01;;;;;;;;;;;;;;;8.22;48.96;100104.75;5229788;27;35261;-92
2022/04/13 02:33:34;;;;;;;;;;;;;;;8.22;49.35;100104.75;5230343;27;35411;-93
2022/04/13 02:36:12;;;;;;;;;;;;;;;8.13;49.67;100102.16;5233192;27;32190;-92
2022/04/13 02:38:43;;;;;;;;;;;;;;;8.23;49.34;100106.47;5234511;27;34230;-95
2022/04/13 02:41:26;;;;;;;;;;;;;;;8.24;49.38;100103.06;5229828;27;34285;-94
2022/04/13 02:44:09;;;;;;;;;;;;;;;8.31;48.99;100099.62;5229487;27;33907;-92
2022/04/13 02:46:54;;;;;;;;;;;;;;;8.34;48.38;100107.38;5229514;27;35970;-95
2022/04/13 02:49:36;;;;;;;;;;;;;;;8.17;49.10;100109.06;5229999;27;35092;-93
2022/04/13 02:52:29;;;;;;;;;;;;;;;8.23;48.87;100103.03;5230209;27;34334;-93
2022/04/13 02:55:05;;;;;;;;;;;;;;;8.20;49.08;100103.03;5230037;27;36513;-92
2022/04/13 02:57:52;;;;;;;;;;;;;;;8.23;48.94;100113.38;5230236;27;34310;-92
2022/04/13 03:00:26;;;;;;;;;;;;;;;8.25;48.39;100111.66;5234238;27;34031;-91
2022/04/13 03:03:06;;;;;;;;;;;;;;;8.19;49.21;100109.03;5229897;27;33810;-95
2022/04/13 03:05:55;;;;;;;;;;;;;;;8.07;49.42;100105.56;5230052;27;35405;-92
2022/04/13 03:08:33;;;;;;;;;;;;;;;8.20;48.90;100113.38;5228310;27;34008;-92
2022/04/13 03:11:11;;;;;;;;;;;;;;;8.05;49.43;100114.19;5229679;27;34088;-92
2022/04/13 03:14:03;;;;;;;;;;;;;;;8.03;50.03;100115.91;5231220;27;35036;-94
2022/04/13 03:16:56;;;;;;;;;;;;;;;8.05;49.45;100114.19;5229899;27;33932;-93
2022/04/13 03:19:50;;;;;;;;;;;;;;;8.02;49.28;100120.19;5196037;27;34740;-92
2022/04/13 04:49:00;;;;;;;;;;;;;;;7.30;54.03;100171.41;5142089;27;34469;-93
2022/04/13 05:09:51;;;;;;;;;;;;;;;8.27;51.99;100192.66;4837962;28;3411823;-92
2022/04/13 05:30:17;;;;;;;;;;;;;;;10.68;42.25;100200.34;5025772;28;32580;-94
2022/04/13 05:39:50;;;;;;;;;;;;;;;11.52;40.64;100210.16;5016705;28;34527;-93
2022/04/13 05:42:35;;;;;;;;;;;;;;;11.74;39.39;100220.31;5056166;28;33758;-93
2022/04/13 05:45:07;;;;;;;;;;;;;;;11.75;39.99;100222.06;5046363;28;34272;-94
2022/04/13 05:47:40;;;;;;;;;;;;;;;11.74;40.63;100218.59;5120159;28;34152;-91
2022/04/13 05:50:12;;;;;;;;;;;;;;;10.77;42.62;100217.59;5119868;28;34544;-91
2022/04/13 05:52:50;;;;;;;;;;;;;;;9.79;44.96;100221.38;5137851;27;32547;-91
2022/04/13 05:55:21;;;;;;;;;;;;;;;10.25;43.83;100223.84;5128321;27;35032;-94
2022/04/13 05:57:51;;;;;;;;;;;;;;;10.11;43.80;100218.69;5183300;27;33865;-91
2022/04/13 06:00:22;;;;;;;;;;;;;;;10.19;44.11;100224.72;5182536;27;34419;-92
2022/04/13 06:02:52;;;;;;;;;;;;;;;9.40;45.17;100231.75;5163036;27;33356;-93
2022/04/13 06:05:24;;;;;;;;;;;;;;;10.00;44.33;100225.62;5181624;27;33801;-91
2022/04/13 06:07:58;;;;;;;;;;;;;;;9.73;44.87;100232.59;5181306;27;35019;-92
2022/04/13 06:10:32;;;;;;;;;;;;;;;10.16;44.26;100231.66;5168171;27;34160;-91
2022/04/13 06:13:00;;;;;;;;;;;;;;;10.01;45.08;100235.16;5182307;27;32549;-92
2022/04/13 06:15:31;;;;;;;;;;;;;;;9.48;45.35;100241.25;5183122;27;34131;-94
2022/04/13 06:18:08;;;;;;;;;;;;;;;9.80;44.62;100244.69;5165838;27;34073;-93
2022/04/13 06:20:45;;;;;;;;;;;;;;;9.20;46.12;100254.16;5166164;27;34845;-95
2022/04/13 06:23:23;;;;;;;;;;;;;;;9.91;45.22;100251.59;5165093;27;32700;-91
2022/04/13 06:25:56;;;;;;;;;;;;;;;10.50;43.15;100248.00;5196353;27;34223;-94
2022/04/13 06:28:33;;;;;;;;;;;;;;;10.55;43.74;100254.03;5204708;27;33886;-92
2022/04/13 06:31:26;;;;;;;;;;;;;;;10.13;43.67;100258.44;5204645;27;34493;-96
2022/04/13 06:33:56;;;;;;;;;;;;;;;10.10;44.14;100258.47;5186901;27;32407;-92
2022/04/13 06:36:34;;;;;;;;;;;;;;;9.65;44.41;100267.16;5205104;27;33676;-92
2022/04/13 06:39:16;;;;;;;;;;;;;;;10.45;43.17;100258.38;5205890;27;35104;-92
2022/04/13 06:42:01;;;;;;;;;;;;;;;10.18;43.36;100264.50;5187684;27;34230;-92
2022/04/13 06:45:01;;;;;;;;;;;;;;;10.66;42.36;100265.22;5205273;27;34054;-95
2022/04/13 06:47:56;;;;;;;;;;;;;;;10.41;43.33;100267.06;5187158;27;33510;-93
2022/04/13 06:57:56;;;;;;;;;;;;;;;10.78;42.80;100255.66;5207022;27;34212;-93
2022/04/13 07:03:30;;;;;;;;;;;;;;;11.10;41.57;100260.66;5187552;27;35211;-93
2022/04/13 07:06:23;;;;;;;;;;;;;;;10.71;40.97;100266.94;5206083;27;34918;-93
2022/04/13 07:09:35;;;;;;;;;;;;;;;10.98;40.83;100268.53;5206608;27;33869;-94
2022/04/13 07:12:47;;;;;;;;;;;;;;;11.70;39.00;100271.50;5199069;27;36234;-93
2022/04/13 07:15:28;;;;;;;;;;;;;;;10.99;40.21;100263.31;5205323;27;34533;-94
2022/04/13 07:18:02;;;;;;;;;;;;;;;11.62;39.94;100277.59;5210703;27;35732;-93
2022/04/13 07:20:48;;;;;;;;;;;;;;;11.51;40.13;100275.09;5205364;27;33833;-91
2022/04/13 07:23:34;;;;;;;;;;;;;;;11.59;38.94;100278.50;5205866;27;34378;-92
2022/04/13 07:26:35;;;;;;;;;;;;;;;12.24;38.17;100278.81;5205511;27;35530;-96
2022/04/13 07:29:05;;;;;;;;;;;;;;;11.93;37.95;100273.91;5204919;27;34400;-93
2022/04/13 07:31:38;;;;;;;;;;;;;;;12.47;37.34;100273.34;5204801;27;33628;-96
2022/04/13 07:34:08;;;;;;;;;;;;;;;12.90;37.17;100274.53;5204728;27;34265;-94
2022/04/13 07:36:42;;;;;;;;;;;;;;;13.01;36.49;100277.87;5191837;27;33694;-92
2022/04/13 07:39:14;;;;;;;;;;;;;;;13.12;35.44;100280.31;5210587;27;34248;-93
2022/04/13 07:41:43;;;;;;;;;;;;;;;13.30;33.79;100276.62;5204509;27;33469;-91
2022/04/13 07:44:14;;;;;;;;;;;;;;;13.10;35.00;100285.56;5204971;27;34111;-94
2022/04/13 07:46:42;;;;;;;;;;;;;;;13.44;35.10;100285.09;5204470;27;33234;-94
2022/04/13 07:49:11;;;;;;;;;;;;;;;13.47;34.90;100286.81;5205116;27;34844;-95
2022/04/13 07:51:40;;;;;;;;;;;;;;;13.68;34.88;100280.41;5210596;27;34355;-93
2022/04/13 07:54:20;;;;;;;;;;;;;;;13.42;35.82;100279.06;5204795;27;33659;-93
2022/04/13 07:57:23;;;;;;;;;;;;;;;13.85;35.21;100287.03;5205070;27;33418;-93
2022/04/13 07:59:54;;;;;;;;;;;;;;;14.08;33.61;100286.62;5204768;27;36305;-93
2022/04/13 08:02:22;;;;;;;;;;;;;;;13.99;34.52;100288.53;5204072;27;34323;-96
2022/04/13 08:04:55;;;;;;;;;;;;;;;14.14;33.82;100290.88;5204861;27;34769;-91
2022/04/13 08:07:32;;;;;;;;;;;;;;;14.26;33.14;100288.06;5187430;27;32914;-93
2022/04/13 08:17:03;;;;;;;;;;;;;;;14.20;32.89;100295.13;5210066;27;35570;-92
2022/04/13 08:19:45;;;;;;;;;;;;;;;14.64;33.25;100288.22;5187091;27;34644;-93
2022/04/13 08:22:17;;;;;;;;;;;;;;;14.76;32.60;100287.09;5210099;27;34437;-89
2022/04/13 08:24:47;;;;;;;;;;;;;;;14.86;32.49;100286.00;5206199;27;34294;-90
2022/04/13 08:27:21;;;;;;;;;;;;;;;15.13;30.92;100284.56;5186174;27;33668;-90
2022/04/13 08:29:53;;;;;;;;;;;;;;;15.28;31.32;100289.44;5204873;27;34128;-91
2022/04/13 08:32:23;;;;;;;;;;;;;;;15.04;31.14;100296.06;5204267;27;33899;-90
2022/04/13 08:35:22;;;;;;;;;;;;;;;15.33;30.61;100289.34;5209915;27;33474;-94
2022/04/13 08:38:10;;;;;;;;;;;;;;;15.51;31.85;100286.31;5192271;27;35128;-93
2022/04/13 08:40:46;;;;;;;;;;;;;;;15.55;30.40;100284.47;5210116;27;33560;-93
2022/04/13 08:43:27;;;;;;;;;;;;;;;15.53;29.42;100291.47;5187146;27;33368;-90
2022/04/13 08:45:57;;;;;;;;;;;;;;;15.43;30.29;100293.44;5204916;27;33681;-91
2022/04/13 08:48:36;;;;;;;;;;;;;;;15.50;29.73;100292.41;5204685;27;34522;-90
2022/04/13 08:51:04;;;;;;;;;;;;;;;15.03;29.49;100291.75;5204210;27;33987;-90
2022/04/13 08:53:40;;;;;;;;;;;;;;;15.87;30.88;100288.06;5204663;27;34748;-92
2022/04/13 08:56:27;;;;;;;;;;;;;;;15.79;30.17;100290.88;5209839;27;32516;-90
2022/04/13 08:59:06;;;;;;;;;;;;;;;16.06;30.54;100289.31;5210215;27;33793;-93
2022/04/13 09:01:42;;;;;;;;;;;;;;;16.17;30.22;100283.81;5205392;27;35328;-93
2022/04/13 09:04:14;;;;;;;;;;;;;;;16.04;30.12;100283.25;5186878;27;34611;-89
2022/04/13 09:06:43;;;;;;;;;;;;;;;15.65;30.33;100285.94;5204581;27;32537;-92
2022/04/13 09:09:13;;;;;;;;;;;;;;;16.07;29.71;100282.31;5204493;27;34062;-94
2022/04/13 09:11:46;;;;;;;;;;;;;;;16.15;29.90;100281.22;5209145;27;34842;-90
2022/04/13 09:14:17;;;;;;;;;;;;;;;16.30;29.83;100290.41;5210194;27;35239;-93
2022/04/13 09:16:48;;;;;;;;;;;;;;;16.35;29.53;100283.28;5204512;27;33230;-90
2022/04/13 09:19:18;;;;;;;;;;;;;;;16.62;28.22;100281.69;5204484;27;33930;-89
2022/04/13 09:21:50;;;;;;;;;;;;;;;16.50;27.64;100282.00;5204196;27;35221;-92
2022/04/13 09:24:19;;;;;;;;;;;;;;;16.33;29.55;100286.84;5206751;27;33680;-91
2022/04/13 09:26:49;;;;;;;;;;;;;;;16.18;28.31;100280.28;5212351;27;33233;-92
2022/04/13 09:29:23;;;;;;;;;;;;;;;16.17;27.88;100271.56;5207189;27;34275;-91
2022/04/13 09:31:51;;;;;;;;;;;;;;;16.25;28.15;100278.34;5207068;27;33991;-93
2022/04/13 09:34:24;;;;;;;;;;;;;;;16.52;28.18;100274.97;5207037;27;34201;-92
2022/04/13 09:36:52;;;;;;;;;;;;;;;16.64;28.29;100274.59;5205011;27;32451;-90
2022/04/13 09:39:23;;;;;;;;;;;;;;;16.90;28.56;100277.41;5210717;27;33156;-92
2022/04/13 09:41:52;;;;;;;;;;;;;;;17.15;28.22;100269.66;5212188;27;36294;-90
2022/04/13 09:44:32;;;;;;;;;;;;;;;16.74;28.96;100271.72;5206911;27;33969;-91
2022/04/13 09:47:07;;;;;;;;;;;;;;;17.04;27.88;100272.62;5224225;27;32429;-90
2022/04/13 09:49:38;;;;;;;;;;;;;;;16.04;29.66;100266.69;5205065;27;34565;-90
2022/04/13 09:52:09;;;;;;;;;;;;;;;16.69;28.73;100256.12;5206525;27;33677;-92
2022/04/13 09:54:47;;;;;;;;;;;;;;;16.82;28.83;100268.03;5212285;27;34272;-92
2022/04/13 09:57:22;;;;;;;;;;;;;;;17.20;29.18;100271.25;5212166;27;33555;-91
2022/04/13 09:59:58;;;;;;;;;;;;;;;17.16;28.24;100260.91;5187577;27;34144;-91
2022/04/13 10:02:36;;;;;;;;;;;;;;;17.16;28.81;100255.66;5206383;27;34974;-93
2022/04/13 10:05:07;;;;;;;;;;;;;;;17.51;27.28;100257.13;5206900;27;34149;-92
2022/04/13 10:07:36;;;;;;;;;;;;;;;17.11;29.44;100250.56;5204466;27;33927;-90
2022/04/13 10:10:06;;;;;;;;;;;;;;;17.22;28.83;100258.91;5207202;27;33878;-93
2022/04/13 10:12:47;;;;;;;;;;;;;;;17.28;28.36;100257.91;5210279;27;34090;-91
2022/04/13 10:15:16;;;;;;;;;;;;;;;16.89;28.47;100252.97;5204864;27;34465;-91
2022/04/13 10:17:46;;;;;;;;;;;;;;;17.29;26.94;100254.34;5205880;27;33103;-91
2022/04/13 10:20:17;;;;;;;;;;;;;;;17.19;28.21;100256.41;5206188;27;34930;-90
2022/04/13 10:22:59;;;;;;;;;;;;;;;17.48;28.63;100258.09;5205100;27;32011;-91
2022/04/13 10:25:28;;;;;;;;;;;;;;;17.60;27.45;100250.75;5207179;27;34419;-90
2022/04/13 10:27:57;;;;;;;;;;;;;;;17.82;26.81;100254.37;5212902;27;34270;-90
2022/04/13 10:30:28;;;;;;;;;;;;;;;18.10;27.27;100249.03;5207320;27;34914;-90
2022/04/13 10:32:59;;;;;;;;;;;;;;;18.04;26.12;100245.75;5188081;27;34366;-93
2022/04/13 10:35:30;;;;;;;;;;;;;;;17.91;27.62;100240.09;5206890;27;34188;-90
2022/04/13 10:37:58;;;;;;;;;;;;;;;17.79;27.72;100243.97;5205823;27;34348;-91
2022/04/13 10:40:31;;;;;;;;;;;;;;;18.23;28.36;100232.84;5212479;27;34281;-91
2022/04/13 10:43:00;;;;;;;;;;;;;;;18.29;26.41;100236.13;5206956;27;34953;-91
2022/04/13 10:45:29;;;;;;;;;;;;;;;18.03;26.06;100233.56;5207876;27;35013;-89
2022/04/13 10:48:01;;;;;;;;;;;;;;;17.79;26.76;100233.47;5205153;27;33216;-92
2022/04/13 10:50:38;;;;;;;;;;;;;;;17.72;26.22;100221.47;5206304;27;35448;-90
2022/04/13 10:53:24;;;;;;;;;;;;;;;18.01;27.06;100227.50;5207245;27;33618;-91
2022/04/13 10:55:56;;;;;;;;;;;;;;;17.96;27.12;100224.19;5213049;27;33989;-89
2022/04/13 10:58:25;;;;;;;;;;;;;;;18.24;27.23;100213.53;5207951;27;33913;-89
2022/04/13 11:00:55;;;;;;;;;;;;;;;18.40;26.68;100212.06;5207848;27;33842;-90
2022/04/13 11:03:25;;;;;;;;;;;;;;;18.29;25.96;100219.47;5206068;27;33766;-91
2022/04/13 11:05:55;;;;;;;;;;;;;;;18.58;25.11;100221.06;5207332;27;33441;-89
2022/04/13 11:08:25;;;;;;;;;;;;;;;18.17;24.51;100212.94;5207108;27;33110;-92
2022/04/13 11:10:54;;;;;;;;;;;;;;;18.35;24.43;100203.50;5213150;27;33985;-89
2022/04/13 11:13:22;;;;;;;;;;;;;;;18.09;26.44;100199.19;5205781;27;33707;-88
2022/04/13 11:15:55;;;;;;;;;;;;;;;18.37;26.02;100204.31;5207742;27;34946;-89
2022/04/13 11:18:24;;;;;;;;;;;;;;;18.46;24.68;100203.09;5207473;27;33963;-89
2022/04/13 11:21:05;;;;;;;;;;;;;;;18.18;25.49;100195.41;5207711;27;34166;-89
2022/04/13 11:23:48;;;;;;;;;;;;;;;18.82;25.32;100195.59;5212803;27;34305;-90
2022/04/13 11:26:17;;;;;;;;;;;;;;;18.57;24.59;100187.78;5212684;27;34507;-89
2022/04/13 11:28:46;;;;;;;;;;;;;;;18.65;24.60;100191.00;5207284;27;33017;-90
2022/04/13 11:31:14;;;;;;;;;;;;;;;18.87;25.82;100185.78;5207973;27;35760;-90
2022/04/13 11:33:50;;;;;;;;;;;;;;;19.32;24.92;100183.97;5207336;27;33954;-89
2022/04/13 11:36:20;;;;;;;;;;;;;;;19.59;23.59;100179.31;5207263;27;34081;-89
2022/04/13 11:39:08;;;;;;;;;;;;;;;18.63;24.68;100181.44;5207520;27;33755;-89
2022/04/13 11:41:37;;;;;;;;;;;;;;;19.13;25.28;100182.09;5212763;27;33846;-88
2022/04/13 11:44:23;;;;;;;;;;;;;;;18.85;24.44;100171.84;5206792;27;33948;-90
2022/04/13 11:46:52;;;;;;;;;;;;;;;18.93;24.70;100175.00;5207198;27;34366;-88
2022/04/13 11:49:20;;;;;;;;;;;;;;;18.49;25.95;100167.06;5204564;27;34429;-87
2022/04/13 11:51:54;;;;;;;;;;;;;;;19.10;25.70;100169.06;5206524;27;33951;-89
2022/04/13 11:54:23;;;;;;;;;;;;;;;19.09;25.01;100166.53;5208065;27;33938;-87
2022/04/13 11:56:52;;;;;;;;;;;;;;;18.88;25.01;100165.59;5212729;27;34346;-90
2022/04/13 11:59:35;;;;;;;;;;;;;;;18.86;25.35;100163.03;5207357;27;33608;-89
2022/04/13 12:02:06;;;;;;;;;;;;;;;18.71;25.15;100159.22;5206845;27;34325;-88
2022/04/13 12:04:35;;;;;;;;;;;;;;;19.16;24.47;100155.69;5206993;27;34223;-90
2022/04/13 12:07:07;;;;;;;;;;;;;;;18.35;25.47;100150.97;5206730;27;35228;-88
2022/04/13 12:09:36;;;;;;;;;;;;;;;18.52;25.63;100142.44;5212816;27;34084;-89
2022/04/13 12:12:04;;;;;;;;;;;;;;;19.44;26.83;100144.00;5207148;27;34980;-88
2022/04/13 12:14:38;;;;;;;;;;;;;;;19.06;25.63;100138.53;5207008;27;34284;-87
2022/04/13 12:17:06;;;;;;;;;;;;;;;19.68;24.81;100143.91;5207701;27;34485;-87
2022/04/13 12:19:39;;;;;;;;;;;;;;;20.43;25.54;100135.22;5206981;27;33250;-89
2022/04/13 12:22:15;;;;;;;;;;;;;;;20.47;24.71;100131.53;5207412;27;34191;-87
2022/04/13 12:24:59;;;;;;;;;;;;;;;20.87;22.93;100140.19;5213003;27;33818;-88
2022/04/13 12:27:28;;;;;;;;;;;;;;;21.04;22.37;100131.44;5210716;27;34414;-88
2022/04/13 12:30:09;;;;;;;;;;;;;;;21.05;22.95;100128.75;5205543;27;33607;-89
2022/04/13 12:32:43;;;;;;;;;;;;;;;21.41;22.80;100124.38;5205988;27;34131;-88
2022/04/13 12:35:12;;;;;;;;;;;;;;;21.56;22.15;100118.31;5205475;27;35070;-87
2022/04/13 12:37:50;;;;;;;;;;;;;;;21.67;22.98;100118.59;5205401;27;34027;-87
2022/04/13 12:40:22;;;;;;;;;;;;;;;21.93;21.93;100122.47;5211483;27;33787;-87
2022/04/13 12:42:51;;;;;;;;;;;;;;;21.61;22.13;100112.78;5209523;27;35101;-89
2022/04/13 12:45:19;;;;;;;;;;;;;;;21.38;21.31;100111.28;5205002;27;35062;-88
2022/04/13 12:47:48;;;;;;;;;;;;;;;22.04;20.94;100105.22;5205389;27;35040;-87
2022/04/13 12:50:17;;;;;;;;;;;;;;;21.73;21.21;100099.78;5204678;27;33607;-89
2022/04/13 12:52:49;;;;;;;;;;;;;;;21.65;22.93;100091.41;5206482;27;34882;-87
2022/04/13 12:55:20;;;;;;;;;;;;;;;21.41;22.48;100113.81;5210666;27;34182;-88
2022/04/13 12:57:48;;;;;;;;;;;;;;;21.52;22.97;100091.19;5204676;27;34458;-88
2022/04/13 13:00:32;;;;;;;;;;;;;;;22.13;21.17;100099.41;5205261;27;33590;-87
2022/04/13 13:03:01;;;;;;;;;;;;;;;22.29;21.83;100092.41;5204182;27;34125;-87
2022/04/13 13:05:30;;;;;;;;;;;;;;;22.33;21.39;100090.44;5204824;27;35080;-87
2022/04/13 13:08:04;;;;;;;;;;;;;;;21.45;21.53;100079.25;5206246;27;33894;-88
2022/04/13 13:10:34;;;;;;;;;;;;;;;21.36;22.43;100071.78;5210964;27;34294;-89
2022/04/13 13:13:17;;;;;;;;;;;;;;;22.45;21.65;100080.97;5206130;27;34273;-89
2022/04/13 13:15:46;;;;;;;;;;;;;;;22.96;20.72;100077.13;5204236;27;33394;-87
2022/04/13 13:18:17;;;;;;;;;;;;;;;23.33;20.93;100076.78;5205405;27;34877;-87
2022/04/13 13:20:55;;;;;;;;;;;;;;;23.41;20.46;100080.69;5204493;27;33198;-87
2022/04/13 13:23:24;;;;;;;;;;;;;;;23.43;20.88;100076.12;5205347;27;34003;-88
2022/04/13 13:25:54;;;;;;;;;;;;;;;23.65;20.51;100074.81;5180061;27;829874;-89
2022/04/13 13:28:24;;;;;;;;;;;;;;;23.67;20.39;100069.44;5206446;27;35169;-88
2022/04/13 13:30:52;;;;;;;;;;;;;;;24.25;20.34;100077.25;5206742;27;34264;-88
2022/04/13 13:33:22;;;;;;;;;;;;;;;24.22;19.15;100068.66;5206586;27;34030;-86
2022/04/13 13:35:50;;;;;;;;;;;;;;;24.26;18.61;100063.06;5206330;27;35033;-88
2022/04/13 13:38:20;;;;;;;;;;;;;;;23.71;19.71;100055.06;5211962;27;34288;-87
2022/04/13 13:40:48;;;;;;;;;;;;;;;24.18;19.03;100056.53;5206495;27;33672;-88
2022/04/13 13:43:38;;;;;;;;;;;;;;;24.15;18.51;100054.94;5206021;27;34369;-87
2022/04/13 13:46:13;;;;;;;;;;;;;;;24.24;20.46;100058.81;5206246;27;34318;-88
2022/04/13 13:48:43;;;;;;;;;;;;;;;24.40;19.90;100051.53;5206410;27;34853;-87
2022/04/13 13:51:14;;;;;;;;;;;;;;;24.73;19.02;100052.12;5205640;27;33414;-88
2022/04/13 13:53:43;;;;;;;;;;;;;;;24.72;18.57;100046.00;5211646;27;34919;-90
2022/04/13 13:56:12;;;;;;;;;;;;;;;23.90;19.04;100039.75;5205691;27;34922;-88
2022/04/13 13:58:42;;;;;;;;;;;;;;;24.70;19.29;100042.59;5205435;27;34353;-87
2022/04/13 14:01:10;;;;;;;;;;;;;;;24.95;18.68;100041.78;5205636;27;33803;-88
2022/04/13 14:03:39;;;;;;;;;;;;;;;25.19;18.50;100033.16;5205375;27;34175;-87
2022/04/13 14:06:11;;;;;;;;;;;;;;;24.67;17.77;100038.34;5211335;27;33703;-90
2022/04/13 14:08:43;;;;;;;;;;;;;;;24.99;18.57;100037.97;5212437;27;35114;-89
2022/04/13 14:11:12;;;;;;;;;;;;;;;25.29;18.36;100034.19;5205782;27;33217;-87
2022/04/13 14:13:41;;;;;;;;;;;;;;;25.34;18.08;100032.06;5205648;27;34677;-88
2022/04/13 14:16:10;;;;;;;;;;;;;;;25.54;17.85;100033.37;5206504;27;33609;-89
2022/04/13 14:18:41;;;;;;;;;;;;;;;25.57;17.49;100027.81;5206335;27;34301;-88
2022/04/13 14:21:10;;;;;;;;;;;;;;;25.58;17.00;100023.34;5211333;27;33183;-89
2022/04/13 14:23:38;;;;;;;;;;;;;;;25.37;16.77;100015.06;5205771;27;34227;-89
2022/04/13 14:26:07;;;;;;;;;;;;;;;25.30;17.04;100022.63;5205695;27;35029;-87
2022/04/13 14:28:35;;;;;;;;;;;;;;;25.34;18.04;100018.78;5206448;27;34453;-87
2022/04/13 14:31:06;;;;;;;;;;;;;;;25.12;18.98;100017.59;5205867;27;33408;-86
2022/04/13 14:33:35;;;;;;;;;;;;;;;25.14;18.31;100014.84;5211211;27;33967;-86
2022/04/13 14:36:04;;;;;;;;;;;;;;;25.45;17.67;100018.06;5205597;27;33713;-88
2022/04/13 14:38:33;;;;;;;;;;;;;;;25.43;16.97;100017.31;5206424;27;34366;-89
2022/04/13 14:41:01;;;;;;;;;;;;;;;25.42;16.62;100012.94;5205857;27;33744;-87
2022/04/13 14:43:29;;;;;;;;;;;;;;;25.54;17.49;100012.12;5206199;27;34225;-87
2022/04/13 14:46:00;;;;;;;;;;;;;;;25.65;17.98;100017.50;5210826;27;34947;-88
2022/04/13 14:48:30;;;;;;;;;;;;;;;25.77;18.14;100013.97;5206724;27;34610;-88
2022/04/13 14:51:01;;;;;;;;;;;;;;;25.76;18.02;100017.59;5205454;27;34076;-88
2022/04/13 14:53:30;;;;;;;;;;;;;;;25.79;17.55;100003.25;5206018;27;33792;-87
2022/04/13 14:55:58;;;;;;;;;;;;;;;26.03;17.27;100007.78;5205411;27;34264;-87
2022/04/13 14:58:27;;;;;;;;;;;;;;;25.85;16.23;100008.09;5205229;27;33838;-87
2022/04/13 15:00:55;;;;;;;;;;;;;;;25.90;17.12;100003.34;5210764;27;33664;-87
2022/04/13 15:03:24;;;;;;;;;;;;;;;26.01;16.52;100004.38;5206040;27;34612;-88
2022/04/13 15:05:54;;;;;;;;;;;;;;;25.90;16.98;100007.81;5205630;27;35030;-87
2022/04/13 15:08:23;;;;;;;;;;;;;;;26.03;16.55;100010.44;5205879;27;35181;-87
2022/04/13 15:10:52;;;;;;;;;;;;;;;26.16;16.58;100008.56;5205748;27;33488;-87
2022/04/13 15:13:20;;;;;;;;;;;;;;;25.97;16.77;100003.75;5211415;27;34347;-87
2022/04/13 15:15:50;;;;;;;;;;;;;;;24.81;17.64;100013.50;5207179;27;34032;-87
2022/04/13 15:18:19;;;;;;;;;;;;;;;24.30;18.26;100012.47;5206223;27;34510;-87
2022/04/13 15:20:47;;;;;;;;;;;;;;;24.26;18.48;100022.44;5206708;27;32763;-87
2022/04/13 15:23:17;;;;;;;;;;;;;;;24.40;19.11;100016.22;5208850;27;34053;-86
2022/04/13 15:25:45;;;;;;;;;;;;;;;24.41;19.03;100017.94;5212130;27;34423;-86
2022/04/13 15:28:14;;;;;;;;;;;;;;;24.37;18.50;100019.94;5207164;27;34380;-88
2022/04/13 15:30:42;;;;;;;;;;;;;;;24.21;19.49;100020.09;5207008;27;33629;-88
2022/04/13 15:33:16;;;;;;;;;;;;;;;23.78;18.98;100016.69;5205372;27;34310;-87
2022/04/13 15:35:44;;;;;;;;;;;;;;;23.35;20.29;100016.66;5206653;27;34750;-88
2022/04/13 15:38:13;;;;;;;;;;;;;;;22.99;19.98;100007.34;5210514;27;34429;-88
2022/04/13 15:40:42;;;;;;;;;;;;;;;22.72;19.95;100017.72;5210828;27;33650;-87
2022/04/13 15:43:11;;;;;;;;;;;;;;;22.80;19.28;100015.47;5209530;27;34992;-89
2022/04/13 15:45:39;;;;;;;;;;;;;;;22.85;19.79;100012.56;5206263;27;33962;-87
2022/04/13 15:48:08;;;;;;;;;;;;;;;22.80;19.95;100007.53;5206658;27;35196;-88
2022/04/13 15:50:39;;;;;;;;;;;;;;;22.50;21.35;100003.09;5207188;27;33678;-90
2022/04/13 15:53:07;;;;;;;;;;;;;;;22.41;21.95;99994.84;5212882;27;34339;-87
2022/04/13 15:55:36;;;;;;;;;;;;;;;21.90;22.18;99990.59;5206707;27;34331;-89
2022/04/13 15:58:06;;;;;;;;;;;;;;;21.68;21.35;99985.63;5207541;27;35117;-87
2022/04/13 16:00:39;;;;;;;;;;;;;;;21.63;22.33;99986.84;5208632;27;34069;-88
2022/04/13 16:03:08;;;;;;;;;;;;;;;21.70;22.88;99986.41;5206982;27;34209;-88